sensor_id;sensor_type;location;lat;lon;timestamp;pressure;altitude;pressure_sealevel;temperature;humidity
60371;BME280;48550;40.588;49.684;2022-12-07T00:01:33;103081.16;;;3.31;100.00
60371;BME280;48550;40.588;49.684;2022-12-07T00:04:01;103081.00;;;3.32;100.00
60371;BME280;48550;40.588;49.684;2022-12-07T00:06:31;103083.78;;;3.31;100.00
60371;BME280;48550;40.588;49.684;2022-12-07T00:08:57;103084.38;;;3.34;100.00
60371;BME280;48550;40.588;49.684;2022-12-07T00:11:23;103085.22;;;3.35;100.00
60371;BME280;48550;40.588;49.684;2022-12-07T00:13:54;103082.56;;;3.35;100.00
60371;BME280;48550;40.588;49.684;2022-12-07T00:16:22;103086.78;;;3.37;100.00
60371;BME280;48550;40.588;49.684;2022-12-07T00:18:48;103074.75;;;3.33;100.00
60371;BME280;48550;40.588;49.684;2022-12-07T00:21:17;103083.16;;;3.38;100.00
60371;BME280;48550;40.588;49.684;2022-12-07T00:23:44;103082.53;;;3.46;100.00
60371;BME280;48550;40.588;49.684;2022-12-07T00:26:19;103078.31;;;3.43;100.00
60371;BME280;48550;40.588;49.684;2022-12-07T00:28:49;103075.19;;;3.38;100.00
60371;BME280;48550;40.588;49.684;2022-12-07T00:31:17;103077.59;;;3.41;100.00
60371;BME280;48550;40.588;49.684;2022-12-07T00:33:43;103076.38;;;3.45;100.00
60371;BME280;48550;40.588;49.684;2022-12-07T00:36:12;103073.00;;;3.43;100.00
60371;BME280;48550;40.588;49.684;2022-12-07T00:38:38;103071.78;;;3.47;100.00
60371;BME280;48550;40.588;49.684;2022-12-07T00:41:06;103069.00;;;3.49;100.00
60371;BME280;48550;40.588;49.684;2022-12-07T00:43:32;103053.56;;;3.43;100.00
60371;BME280;48550;40.588;49.684;2022-12-07T00:45:58;103060.31;;;3.47;100.00
60371;BME280;48550;40.588;49.684;2022-12-07T00:48:24;103063.81;;;3.47;100.00
60371;BME280;48550;40.588;49.684;2022-12-07T00:50:50;103064.66;;;3.48;100.00
60371;BME280;48550;40.588;49.684;2022-12-07T00:53:17;103054.63;;;3.51;100.00
60371;BME280;48550;40.588;49.684;2022-12-07T00:55:43;103057.59;;;3.58;100.00
60371;BME280;48550;40.588;49.684;2022-12-07T00:58:09;103062.31;;;3.55;100.00
60371;BME280;48550;40.588;49.684;2022-12-07T01:00:37;103051.50;;;3.46;100.00
60371;BME280;48550;40.588;49.684;2022-12-07T01:03:04;103060.63;;;3.54;100.00
60371;BME280;48550;40.588;49.684;2022-12-07T01:05:30;103054.34;;;3.55;100.00
60371;BME280;48550;40.588;49.684;2022-12-07T01:07:55;103047.22;;;3.55;100.00
60371;BME280;48550;40.588;49.684;2022-12-07T01:10:21;103049.56;;;3.69;100.00
60371;BME280;48550;40.588;49.684;2022-12-07T01:12:47;103051.06;;;3.62;100.00
60371;BME280;48550;40.588;49.684;2022-12-07T01:15:13;103048.25;;;3.64;100.00
60371;BME280;48550;40.588;49.684;2022-12-07T01:17:38;103044.06;;;3.61;100.00
60371;BME280;48550;40.588;49.684;2022-12-07T01:20:05;103036.66;;;3.65;100.00
60371;BME280;48550;40.588;49.684;2022-12-07T01:22:33;103047.16;;;3.66;100.00
60371;BME280;48550;40.588;49.684;2022-12-07T01:25:01;103032.34;;;3.64;100.00
60371;BME280;48550;40.588;49.684;2022-12-07T01:27:27;103032.34;;;3.64;100.00
60371;BME280;48550;40.588;49.684;2022-12-07T01:29:52;103030.38;;;3.66;100.00
60371;BME280;48550;40.588;49.684;2022-12-07T01:32:18;103031.16;;;3.57;100.00
60371;BME280;48550;40.588;49.684;2022-12-07T01:34:44;103041.66;;;3.58;100.00
60371;BME280;48550;40.588;49.684;2022-12-07T01:37:09;103039.59;;;3.62;100.00
60371;BME280;48550;40.588;49.684;2022-12-07T01:39:35;103047.28;;;3.65;100.00
60371;BME280;48550;40.588;49.684;2022-12-07T01:42:01;103042.06;;;3.74;100.00
60371;BME280;48550;40.588;49.684;2022-12-07T01:44:28;103044.47;;;3.77;100.00
60371;BME280;48550;40.588;49.684;2022-12-07T01:47:03;103042.28;;;3.71;100.00
60371;BME280;48550;40.588;49.684;2022-12-07T01:49:46;103044.72;;;3.74;100.00
60371;BME280;48550;40.588;49.684;2022-12-07T01:52:14;103043.28;;;3.70;100.00
60371;BME280;48550;40.588;49.684;2022-12-07T01:54:42;103044.00;;;3.72;100.00
60371;BME280;48550;40.588;49.684;2022-12-07T01:57:10;103043.03;;;3.73;100.00
60371;BME280;48550;40.588;49.684;2022-12-07T01:59:37;103048.66;;;3.80;100.00
60371;BME280;48550;40.588;49.684;2022-12-07T02:02:08;103047.44;;;3.84;100.00
60371;BME280;48550;40.588;49.684;2022-12-07T02:04:36;103053.13;;;3.79;100.00
60371;BME280;48550;40.588;49.684;2022-12-07T02:07:02;103052.03;;;3.82;100.00
60371;BME280;48550;40.588;49.684;2022-12-07T02:09:28;103055.13;;;3.87;100.00
60371;BME280;48550;40.588;49.684;2022-12-07T02:11:54;103053.47;;;3.86;100.00
60371;BME280;48550;40.588;49.684;2022-12-07T02:14:21;103048.94;;;3.77;100.00
60371;BME280;48550;40.588;49.684;2022-12-07T02:20:00;103052.69;;;3.74;100.00
60371;BME280;48550;40.588;49.684;2022-12-07T02:25:30;103058.59;;;3.78;100.00
60371;BME280;48550;40.588;49.684;2022-12-07T02:28:12;103066.03;;;3.84;100.00
60371;BME280;48550;40.588;49.684;2022-12-07T02:30:46;103056.91;;;3.77;100.00
60371;BME280;48550;40.588;49.684;2022-12-07T02:33:31;103055.47;;;3.73;100.00
60371;BME280;48550;40.588;49.684;2022-12-07T02:36:05;103052.56;;;3.76;100.00
60371;BME280;48550;40.588;49.684;2022-12-07T02:39:14;103055.53;;;3.82;100.00
60371;BME280;48550;40.588;49.684;2022-12-07T02:41:51;103047.03;;;3.89;100.00
60371;BME280;48550;40.588;49.684;2022-12-07T02:44:23;103055.75;;;4.00;100.00
60371;BME280;48550;40.588;49.684;2022-12-07T02:47:05;103045.72;;;4.04;100.00
60371;BME280;48550;40.588;49.684;2022-12-07T02:49:33;103037.06;;;4.11;100.00
60371;BME280;48550;40.588;49.684;2022-12-07T02:51:59;103035.66;;;4.07;100.00
60371;BME280;48550;40.588;49.684;2022-12-07T02:54:25;103038.13;;;3.99;100.00
60371;BME280;48550;40.588;49.684;2022-12-07T02:57:06;103040.66;;;4.01;100.00
60371;BME280;48550;40.588;49.684;2022-12-07T03:03:09;103036.72;;;3.95;100.00
60371;BME280;48550;40.588;49.684;2022-12-07T03:06:20;103053.81;;;4.02;100.00
60371;BME280;48550;40.588;49.684;2022-12-07T03:09:04;103050.66;;;4.18;100.00
60371;BME280;48550;40.588;49.684;2022-12-07T03:11:41;103052.22;;;4.21;100.00
60371;BME280;48550;40.588;49.684;2022-12-07T03:14:21;103050.28;;;4.23;100.00
60371;BME280;48550;40.588;49.684;2022-12-07T03:17:08;103049.16;;;4.25;100.00
60371;BME280;48550;40.588;49.684;2022-12-07T03:19:36;103046.91;;;4.21;100.00
60371;BME280;48550;40.588;49.684;2022-12-07T03:22:08;103052.09;;;4.22;100.00
60371;BME280;48550;40.588;49.684;2022-12-07T03:24:56;103052.22;;;4.21;100.00
60371;BME280;48550;40.588;49.684;2022-12-07T03:27:27;103057.84;;;4.27;100.00
60371;BME280;48550;40.588;49.684;2022-12-07T03:30:07;103071.50;;;4.13;100.00
60371;BME280;48550;40.588;49.684;2022-12-07T03:32:38;103061.44;;;4.17;100.00
60371;BME280;48550;40.588;49.684;2022-12-07T03:35:21;103076.69;;;4.14;100.00
60371;BME280;48550;40.588;49.684;2022-12-07T03:38:27;103078.75;;;4.11;100.00
60371;BME280;48550;40.588;49.684;2022-12-07T03:43:18;103073.47;;;4.21;100.00
60371;BME280;48550;40.588;49.684;2022-12-07T03:48:40;103088.59;;;4.20;100.00
60371;BME280;48550;40.588;49.684;2022-12-07T03:51:36;103078.22;;;4.17;100.00
60371;BME280;48550;40.588;49.684;2022-12-07T03:54:15;103078.25;;;4.27;100.00
60371;BME280;48550;40.588;49.684;2022-12-07T03:56:44;103086.06;;;4.19;100.00
60371;BME280;48550;40.588;49.684;2022-12-07T03:59:13;103087.56;;;4.11;100.00
60371;BME280;48550;40.588;49.684;2022-12-07T04:01:44;103083.81;;;4.14;100.00
60371;BME280;48550;40.588;49.684;2022-12-07T04:04:11;103083.22;;;4.10;100.00
60371;BME280;48550;40.588;49.684;2022-12-07T04:06:37;103088.38;;;4.33;100.00
60371;BME280;48550;40.588;49.684;2022-12-07T04:09:03;103089.16;;;4.24;100.00
60371;BME280;48550;40.588;49.684;2022-12-07T04:11:29;103088.63;;;4.30;100.00
60371;BME280;48550;40.588;49.684;2022-12-07T04:13:54;103086.94;;;4.29;100.00
60371;BME280;48550;40.588;49.684;2022-12-07T04:16:38;103091.28;;;4.30;100.00
60371;BME280;48550;40.588;49.684;2022-12-07T04:19:04;103093.53;;;4.34;100.00
60371;BME280;48550;40.588;49.684;2022-12-07T04:21:30;103095.94;;;4.37;100.00
60371;BME280;48550;40.588;49.684;2022-12-07T04:23:56;103092.00;;;4.32;100.00
60371;BME280;48550;40.588;49.684;2022-12-07T04:26:21;103102.91;;;4.29;100.00
60371;BME280;48550;40.588;49.684;2022-12-07T04:28:47;103113.72;;;4.37;100.00
60371;BME280;48550;40.588;49.684;2022-12-07T04:31:13;103103.91;;;4.37;100.00
60371;BME280;48550;40.588;49.684;2022-12-07T04:33:38;103105.59;;;4.38;100.00
60371;BME280;48550;40.588;49.684;2022-12-07T04:36:04;103105.84;;;4.56;100.00
60371;BME280;48550;40.588;49.684;2022-12-07T04:38:30;103114.66;;;4.57;100.00
60371;BME280;48550;40.588;49.684;2022-12-07T04:40:56;103106.66;;;4.47;100.00
60371;BME280;48550;40.588;49.684;2022-12-07T04:43:21;103114.72;;;4.45;100.00
60371;BME280;48550;40.588;49.684;2022-12-07T04:45:47;103116.19;;;4.59;100.00
60371;BME280;48550;40.588;49.684;2022-12-07T04:48:14;103125.59;;;4.63;100.00
60371;BME280;48550;40.588;49.684;2022-12-07T04:50:40;103111.59;;;4.61;100.00
60371;BME280;48550;40.588;49.684;2022-12-07T04:53:05;103120.00;;;4.66;100.00
60371;BME280;48550;40.588;49.684;2022-12-07T04:55:31;103108.69;;;4.74;100.00
60371;BME280;48550;40.588;49.684;2022-12-07T04:57:57;103116.25;;;4.78;100.00
60371;BME280;48550;40.588;49.684;2022-12-07T05:00:22;103111.88;;;4.68;100.00
60371;BME280;48550;40.588;49.684;2022-12-07T05:02:48;103107.28;;;4.70;100.00
60371;BME280;48550;40.588;49.684;2022-12-07T05:05:14;103106.44;;;4.69;100.00
60371;BME280;48550;40.588;49.684;2022-12-07T05:07:40;103104.75;;;4.68;100.00
60371;BME280;48550;40.588;49.684;2022-12-07T05:10:06;103097.47;;;4.70;100.00
60371;BME280;48550;40.588;49.684;2022-12-07T05:12:31;103109.41;;;4.76;100.00
60371;BME280;48550;40.588;49.684;2022-12-07T05:14:57;103106.72;;;4.66;100.00
60371;BME280;48550;40.588;49.684;2022-12-07T05:17:23;103104.88;;;4.67;100.00
60371;BME280;48550;40.588;49.684;2022-12-07T05:19:48;103112.47;;;4.71;100.00
60371;BME280;48550;40.588;49.684;2022-12-07T05:22:14;103109.53;;;4.74;100.00
60371;BME280;48550;40.588;49.684;2022-12-07T05:24:40;103113.03;;;4.75;100.00
60371;BME280;48550;40.588;49.684;2022-12-07T05:27:06;103115.53;;;4.67;100.00
60371;BME280;48550;40.588;49.684;2022-12-07T05:29:32;103108.94;;;4.61;100.00
60371;BME280;48550;40.588;49.684;2022-12-07T05:31:57;103106.44;;;4.69;100.00
60371;BME280;48550;40.588;49.684;2022-12-07T05:34:23;103110.13;;;4.88;100.00
60371;BME280;48550;40.588;49.684;2022-12-07T05:36:49;103113.63;;;4.88;100.00
60371;BME280;48550;40.588;49.684;2022-12-07T05:39:15;103117.97;;;4.89;100.00
60371;BME280;48550;40.588;49.684;2022-12-07T05:41:41;103109.00;;;4.90;100.00
60371;BME280;48550;40.588;49.684;2022-12-07T05:44:32;103117.84;;;5.00;100.00
60371;BME280;48550;40.588;49.684;2022-12-07T05:46:58;103110.69;;;4.91;100.00
60371;BME280;48550;40.588;49.684;2022-12-07T05:49:24;103104.81;;;4.97;100.00
60371;BME280;48550;40.588;49.684;2022-12-07T05:51:49;103116.31;;;4.98;100.00
60371;BME280;48550;40.588;49.684;2022-12-07T05:54:15;103105.50;;;4.90;100.00
60371;BME280;48550;40.588;49.684;2022-12-07T05:56:41;103111.25;;;4.95;100.00
60371;BME280;48550;40.588;49.684;2022-12-07T05:59:08;103098.34;;;4.90;100.00
60371;BME280;48550;40.588;49.684;2022-12-07T06:04:16;103111.84;;;5.08;100.00
60371;BME280;48550;40.588;49.684;2022-12-07T06:06:42;103104.56;;;5.20;100.00
60371;BME280;48550;40.588;49.684;2022-12-07T06:09:07;103106.69;;;5.26;100.00
60371;BME280;48550;40.588;49.684;2022-12-07T06:11:33;103108.19;;;5.19;100.00
60371;BME280;48550;40.588;49.684;2022-12-07T06:14:18;103118.31;;;5.25;100.00
60371;BME280;48550;40.588;49.684;2022-12-07T06:16:43;103103.47;;;5.22;100.00
60371;BME280;48550;40.588;49.684;2022-12-07T06:19:09;103113.28;;;5.31;100.00
60371;BME280;48550;40.588;49.684;2022-12-07T06:21:35;103115.66;;;5.25;100.00
60371;BME280;48550;40.588;49.684;2022-12-07T06:24:00;103114.69;;;5.45;100.00
60371;BME280;48550;40.588;49.684;2022-12-07T06:26:27;103119.16;;;5.35;100.00
60371;BME280;48550;40.588;49.684;2022-12-07T06:28:52;103117.50;;;5.34;100.00
60371;BME280;48550;40.588;49.684;2022-12-07T06:31:18;103110.06;;;5.28;100.00
60371;BME280;48550;40.588;49.684;2022-12-07T06:33:44;103111.31;;;5.53;100.00
60371;BME280;48550;40.588;49.684;2022-12-07T06:36:10;103114.97;;;5.52;100.00
60371;BME280;48550;40.588;49.684;2022-12-07T06:38:36;103106.56;;;5.47;100.00
60371;BME280;48550;40.588;49.684;2022-12-07T06:41:02;103109.50;;;5.43;100.00
60371;BME280;48550;40.588;49.684;2022-12-07T06:43:28;103104.44;;;5.60;100.00
60371;BME280;48550;40.588;49.684;2022-12-07T06:45:53;103099.81;;;5.62;100.00
60371;BME280;48550;40.588;49.684;2022-12-07T06:48:19;103099.94;;;5.70;100.00
60371;BME280;48550;40.588;49.684;2022-12-07T06:50:45;103086.91;;;5.67;100.00
60371;BME280;48550;40.588;49.684;2022-12-07T06:53:11;103099.94;;;5.70;100.00
60371;BME280;48550;40.588;49.684;2022-12-07T06:55:37;103089.69;;;5.75;100.00
60371;BME280;48550;40.588;49.684;2022-12-07T06:58:03;103094.75;;;5.68;100.00
60371;BME280;48550;40.588;49.684;2022-12-07T07:00:29;103088.72;;;5.76;100.00
60371;BME280;48550;40.588;49.684;2022-12-07T07:02:54;103087.91;;;5.66;100.00
60371;BME280;48550;40.588;49.684;2022-12-07T07:05:20;103083.50;;;5.84;100.00
60371;BME280;48550;40.588;49.684;2022-12-07T07:07:49;103071.03;;;5.75;100.00
60371;BME280;48550;40.588;49.684;2022-12-07T07:10:15;103080.88;;;5.74;100.00
60371;BME280;48550;40.588;49.684;2022-12-07T07:12:41;103070.31;;;5.83;100.00
60371;BME280;48550;40.588;49.684;2022-12-07T07:15:07;103065.84;;;5.83;100.00
60371;BME280;48550;40.588;49.684;2022-12-07T07:17:33;103066.97;;;5.81;100.00
60371;BME280;48550;40.588;49.684;2022-12-07T07:19:59;103066.41;;;5.77;100.00
60371;BME280;48550;40.588;49.684;2022-12-07T07:22:24;103069.91;;;5.78;100.00
60371;BME280;48550;40.588;49.684;2022-12-07T07:24:50;103061.63;;;5.81;100.00
60371;BME280;48550;40.588;49.684;2022-12-07T07:27:16;103058.84;;;5.72;100.00
60371;BME280;48550;40.588;49.684;2022-12-07T07:29:42;103061.91;;;5.87;100.00
60371;BME280;48550;40.588;49.684;2022-12-07T07:32:07;103058.00;;;5.82;100.00
60371;BME280;48550;40.588;49.684;2022-12-07T07:34:33;103057.84;;;5.83;100.00
60371;BME280;48550;40.588;49.684;2022-12-07T07:36:59;103052.66;;;5.82;100.00
60371;BME280;48550;40.588;49.684;2022-12-07T07:39:25;103045.38;;;5.84;100.00
60371;BME280;48550;40.588;49.684;2022-12-07T07:41:50;103043.25;;;5.87;100.00
60371;BME280;48550;40.588;49.684;2022-12-07T07:44:16;103038.91;;;5.86;100.00
60371;BME280;48550;40.588;49.684;2022-12-07T07:46:42;103031.75;;;5.87;100.00
60371;BME280;48550;40.588;49.684;2022-12-07T07:49:09;103037.38;;;5.84;100.00
60371;BME280;48550;40.588;49.684;2022-12-07T07:51:36;103024.34;;;5.71;100.00
60371;BME280;48550;40.588;49.684;2022-12-07T07:54:03;103021.66;;;5.90;100.00
60371;BME280;48550;40.588;49.684;2022-12-07T07:56:29;103024.63;;;5.78;100.00
60371;BME280;48550;40.588;49.684;2022-12-07T07:58:54;103014.66;;;5.89;100.00
60371;BME280;48550;40.588;49.684;2022-12-07T08:01:20;103013.41;;;5.74;100.00
60371;BME280;48550;40.588;49.684;2022-12-07T08:03:47;103008.47;;;5.79;100.00
60371;BME280;48550;40.588;49.684;2022-12-07T08:06:12;102999.09;;;5.75;100.00
60371;BME280;48550;40.588;49.684;2022-12-07T08:08:38;103004.00;;;5.89;100.00
60371;BME280;48550;40.588;49.684;2022-12-07T08:11:08;103012.94;;;5.88;100.00
60371;BME280;48550;40.588;49.684;2022-12-07T08:13:35;103004.09;;;5.88;100.00
60371;BME280;48550;40.588;49.684;2022-12-07T08:16:08;102995.00;;;5.90;100.00
60371;BME280;48550;40.588;49.684;2022-12-07T08:18:38;102998.53;;;5.91;100.00
60371;BME280;48550;40.588;49.684;2022-12-07T08:21:05;102992.59;;;5.87;100.00
60371;BME280;48550;40.588;49.684;2022-12-07T08:23:31;102990.66;;;5.89;100.00
60371;BME280;48550;40.588;49.684;2022-12-07T08:26:06;102982.38;;;5.92;100.00
60371;BME280;48550;40.588;49.684;2022-12-07T08:28:32;102977.19;;;6.00;100.00
60371;BME280;48550;40.588;49.684;2022-12-07T08:31:02;102978.72;;;6.03;90.42
60371;BME280;48550;40.588;49.684;2022-12-07T08:33:29;102968.50;;;5.98;94.26
60371;BME280;48550;40.588;49.684;2022-12-07T08:35:54;102971.56;;;6.03;90.69
60371;BME280;48550;40.588;49.684;2022-12-07T08:38:20;102970.56;;;6.04;81.47
60371;BME280;48550;40.588;49.684;2022-12-07T08:40:54;102968.91;;;6.03;87.28
60371;BME280;48550;40.588;49.684;2022-12-07T08:43:20;102971.94;;;6.09;88.02
60371;BME280;48550;40.588;49.684;2022-12-07T08:45:53;102962.88;;;6.01;88.27
60371;BME280;48550;40.588;49.684;2022-12-07T08:48:21;102959.22;;;5.93;89.00
60371;BME280;48550;40.588;49.684;2022-12-07T08:50:50;102956.16;;;5.97;88.09
60371;BME280;48550;40.588;49.684;2022-12-07T08:53:16;102955.31;;;5.97;90.69
60371;BME280;48550;40.588;49.684;2022-12-07T08:55:44;102951.91;;;6.04;91.22
60371;BME280;48550;40.588;49.684;2022-12-07T08:58:10;102952.16;;;6.11;89.82
60371;BME280;48550;40.588;49.684;2022-12-07T09:00:36;102953.13;;;6.10;88.79
60371;BME280;48550;40.588;49.684;2022-12-07T09:03:01;102950.88;;;6.15;91.69
60371;BME280;48550;40.588;49.684;2022-12-07T09:05:27;102944.59;;;6.07;85.84
60371;BME280;48550;40.588;49.684;2022-12-07T09:07:57;102940.16;;;6.25;85.49
60371;BME280;48550;40.588;49.684;2022-12-07T09:10:25;102942.50;;;6.28;82.03
60371;BME280;48550;40.588;49.684;2022-12-07T09:12:51;102936.97;;;6.39;83.62
60371;BME280;48550;40.588;49.684;2022-12-07T09:15:17;102941.25;;;6.50;83.53
60371;BME280;48550;40.588;49.684;2022-12-07T09:17:43;102944.66;;;6.42;83.93
60371;BME280;48550;40.588;49.684;2022-12-07T09:20:09;102937.66;;;6.41;82.11
60371;BME280;48550;40.588;49.684;2022-12-07T09:22:35;102942.38;;;6.47;81.10
60371;BME280;48550;40.588;49.684;2022-12-07T09:25:01;102933.31;;;6.40;83.94
60371;BME280;48550;40.588;49.684;2022-12-07T09:27:27;102945.34;;;6.44;83.51
60371;BME280;48550;40.588;49.684;2022-12-07T09:29:53;102935.91;;;6.50;73.92
60371;BME280;48550;40.588;49.684;2022-12-07T09:32:19;102930.94;;;6.37;76.56
60371;BME280;48550;40.588;49.684;2022-12-07T09:34:45;102937.19;;;6.28;78.77
60371;BME280;48550;40.588;49.684;2022-12-07T09:37:11;102932.16;;;6.25;78.32
60371;BME280;48550;40.588;49.684;2022-12-07T09:39:40;102939.47;;;6.23;80.77
60371;BME280;48550;40.588;49.684;2022-12-07T09:42:07;102928.50;;;6.26;82.37
60371;BME280;48550;40.588;49.684;2022-12-07T09:44:34;102928.19;;;6.29;84.17
60371;BME280;48550;40.588;49.684;2022-12-07T09:47:00;102924.16;;;6.60;77.98
60371;BME280;48550;40.588;49.684;2022-12-07T09:49:31;102928.81;;;6.41;70.53
60371;BME280;48550;40.588;49.684;2022-12-07T09:52:19;102933.75;;;6.35;71.74
60371;BME280;48550;40.588;49.684;2022-12-07T09:54:48;102918.22;;;6.31;77.62
60371;BME280;48550;40.588;49.684;2022-12-07T09:57:15;102922.84;;;6.29;75.30
60371;BME280;48550;40.588;49.684;2022-12-07T09:59:41;102915.78;;;6.37;74.83
60371;BME280;48550;40.588;49.684;2022-12-07T10:02:42;102918.00;;;6.42;69.85
60371;BME280;48550;40.588;49.684;2022-12-07T10:05:13;102916.63;;;6.38;73.07
60371;BME280;48550;40.588;49.684;2022-12-07T10:07:40;102907.25;;;6.52;68.29
60371;BME280;48550;40.588;49.684;2022-12-07T10:10:30;102917.59;;;6.37;63.70
60371;BME280;48550;40.588;49.684;2022-12-07T10:13:05;102913.25;;;6.36;64.96
60371;BME280;48550;40.588;49.684;2022-12-07T10:18:25;102907.09;;;6.35;65.75
60371;BME280;48550;40.588;49.684;2022-12-07T10:21:14;102909.75;;;6.35;63.32
60371;BME280;48550;40.588;49.684;2022-12-07T10:23:58;102911.03;;;6.31;66.72
60371;BME280;48550;40.588;49.684;2022-12-07T10:26:36;102911.22;;;6.48;66.15
60371;BME280;48550;40.588;49.684;2022-12-07T10:29:23;102909.00;;;6.43;60.78
60371;BME280;48550;40.588;49.684;2022-12-07T10:31:55;102908.31;;;6.41;62.82
60371;BME280;48550;40.588;49.684;2022-12-07T10:34:30;102910.75;;;6.34;62.40
60371;BME280;48550;40.588;49.684;2022-12-07T10:37:18;102911.03;;;6.31;64.15
60371;BME280;48550;40.588;49.684;2022-12-07T10:42:28;102902.28;;;6.21;67.98
60371;BME280;48550;40.588;49.684;2022-12-07T10:45:14;102906.19;;;6.45;67.98
60371;BME280;48550;40.588;49.684;2022-12-07T10:53:21;102905.25;;;6.36;64.46
60371;BME280;48550;40.588;49.684;2022-12-07T10:58:50;102900.84;;;6.45;66.41
60371;BME280;48550;40.588;49.684;2022-12-07T11:01:23;102913.09;;;6.37;69.76
60371;BME280;48550;40.588;49.684;2022-12-07T11:15:16;102902.28;;;6.39;68.90
60371;BME280;48550;40.588;49.684;2022-12-07T11:18:11;102903.44;;;6.36;72.77
60371;BME280;48550;40.588;49.684;2022-12-07T11:20:51;102905.56;;;6.33;71.44
60371;BME280;48550;40.588;49.684;2022-12-07T11:29:07;102904.63;;;6.24;76.43
60371;BME280;48550;40.588;49.684;2022-12-07T11:37:34;102903.81;;;6.24;80.56
60371;BME280;48550;40.588;49.684;2022-12-07T11:43:01;102900.53;;;6.30;73.22
60371;BME280;48550;40.588;49.684;2022-12-07T11:45:32;102907.66;;;6.12;82.84
60371;BME280;48550;40.588;49.684;2022-12-07T11:48:07;102906.16;;;6.09;85.02
60371;BME280;48550;40.588;49.684;2022-12-07T11:50:41;102903.94;;;6.04;85.51
60371;BME280;48550;40.588;49.684;2022-12-07T11:56:08;102911.94;;;6.04;90.17
60371;BME280;48550;40.588;49.684;2022-12-07T12:07:10;102912.75;;;6.05;88.63
60371;BME280;48550;40.588;49.684;2022-12-07T12:09:50;102912.38;;;6.00;87.92
60371;BME280;48550;40.588;49.684;2022-12-07T12:25:28;102913.09;;;5.92;87.42
60371;BME280;48550;40.588;49.684;2022-12-07T12:27:57;102917.44;;;5.93;87.38
60371;BME280;48550;40.588;49.684;2022-12-07T12:30:44;102924.88;;;5.90;86.66
60371;BME280;48550;40.588;49.684;2022-12-07T12:33:19;102921.38;;;5.89;86.90
60371;BME280;48550;40.588;49.684;2022-12-07T12:45:02;102930.31;;;5.88;88.67
60371;BME280;48550;40.588;49.684;2022-12-07T12:47:41;102931.59;;;5.84;91.15
60371;BME280;48550;40.588;49.684;2022-12-07T12:50:41;102927.25;;;5.83;92.02
60371;BME280;48550;40.588;49.684;2022-12-07T12:53:19;102929.63;;;5.86;90.29
60371;BME280;48550;40.588;49.684;2022-12-07T12:56:09;102925.88;;;5.79;94.03
60371;BME280;48550;40.588;49.684;2022-12-07T12:58:39;102931.75;;;5.83;95.72
60371;BME280;48550;40.588;49.684;2022-12-07T13:01:33;102932.88;;;5.80;92.33
60371;BME280;48550;40.588;49.684;2022-12-07T13:04:02;102929.53;;;5.78;95.10
60371;BME280;48550;40.588;49.684;2022-12-07T13:06:35;102935.41;;;5.82;94.37
60371;BME280;48550;40.588;49.684;2022-12-07T13:09:03;102929.81;;;5.75;95.77
60371;BME280;48550;40.588;49.684;2022-12-07T13:11:41;102929.63;;;5.86;97.37
60371;BME280;48550;40.588;49.684;2022-12-07T13:20:04;102933.13;;;5.87;92.52
60371;BME280;48550;40.588;49.684;2022-12-07T13:25:03;102937.66;;;5.77;96.38
60371;BME280;48550;40.588;49.684;2022-12-07T13:27:32;102927.16;;;5.75;95.41
60371;BME280;48550;40.588;49.684;2022-12-07T13:29:58;102924.59;;;5.83;96.33
60371;BME280;48550;40.588;49.684;2022-12-07T13:32:26;102925.88;;;5.79;96.46
60371;BME280;48550;40.588;49.684;2022-12-07T13:34:52;102926.47;;;5.73;97.41
60371;BME280;48550;40.588;49.684;2022-12-07T13:37:32;102929.09;;;5.83;95.20
60371;BME280;48550;40.588;49.684;2022-12-07T13:39:59;102922.75;;;5.93;94.48
60371;BME280;48550;40.588;49.684;2022-12-07T13:42:34;102927.66;;;5.88;95.61
60371;BME280;48550;40.588;49.684;2022-12-07T13:45:27;102930.63;;;5.95;100.00
60371;BME280;48550;40.588;49.684;2022-12-07T13:48:32;102911.44;;;5.82;99.67
60371;BME280;48550;40.588;49.684;2022-12-07T13:50:59;102926.25;;;5.94;99.75
60371;BME280;48550;40.588;49.684;2022-12-07T13:53:27;102917.16;;;5.87;97.78
60371;BME280;48550;40.588;49.684;2022-12-07T13:56:00;102926.97;;;5.86;95.57
60371;BME280;48550;40.588;49.684;2022-12-07T13:58:30;102924.88;;;5.90;97.22
60371;BME280;48550;40.588;49.684;2022-12-07T14:00:57;102928.41;;;5.81;99.11
60371;BME280;48550;40.588;49.684;2022-12-07T14:03:28;102922.53;;;5.77;96.92
60371;BME280;48550;40.588;49.684;2022-12-07T14:06:22;102934.88;;;5.78;94.10
60371;BME280;48550;40.588;49.684;2022-12-07T14:08:51;102935.41;;;5.82;97.37
60371;BME280;48550;40.588;49.684;2022-12-07T14:11:31;102938.38;;;5.79;98.30
60371;BME280;48550;40.588;49.684;2022-12-07T14:14:00;102937.28;;;5.71;98.25
60371;BME280;48550;40.588;49.684;2022-12-07T14:16:33;102931.94;;;5.71;99.46
60371;BME280;48550;40.588;49.684;2022-12-07T14:19:03;102939.34;;;5.78;94.19
60371;BME280;48550;40.588;49.684;2022-12-07T14:21:31;102931.66;;;5.74;94.94
60371;BME280;48550;40.588;49.684;2022-12-07T14:24:15;102936.13;;;5.74;99.30
60371;BME280;48550;40.588;49.684;2022-12-07T14:26:44;102935.06;;;5.67;100.00
60371;BME280;48550;40.588;49.684;2022-12-07T14:29:31;102936.44;;;5.71;98.56
60371;BME280;48550;40.588;49.684;2022-12-07T14:31:58;102937.41;;;5.70;100.00
60371;BME280;48550;40.588;49.684;2022-12-07T14:34:30;102935.75;;;5.69;100.00
60371;BME280;48550;40.588;49.684;2022-12-07T14:36:55;102939.38;;;5.68;100.00
60371;BME280;48550;40.588;49.684;2022-12-07T14:39:21;102941.88;;;5.79;97.48